createdAt,value
2023-07-10T00:00:22.186Z,83.72
2023-07-10T00:02:51.091Z,84.34
2023-07-10T00:05:20.592Z,83.61
2023-07-10T00:07:47.267Z,83.99
2023-07-10T00:10:16.643Z,82.79
2023-07-10T00:12:45.212Z,84.44
2023-07-10T00:15:22.755Z,84.62
2023-07-10T00:17:51.725Z,84.53
2023-07-10T00:20:29.733Z,83.38
2023-07-10T00:22:56.398Z,84.14
2023-07-10T00:25:24.198Z,84.95
2023-07-10T00:27:51.326Z,83.88
2023-07-10T00:30:23.594Z,84.30
2023-07-10T00:32:53.799Z,84.55
2023-07-10T00:35:22.411Z,83.48
2023-07-10T00:38:02.107Z,83.66
2023-07-10T00:40:31.458Z,84.50
2023-07-10T00:43:06.411Z,85.37
2023-07-10T00:45:33.183Z,85.02
2023-07-10T00:48:35.054Z,84.84
2023-07-10T00:51:11.066Z,84.01
2023-07-10T00:53:42.313Z,84.81
2023-07-10T00:56:16.019Z,84.30
2023-07-10T00:58:47.605Z,85.22
2023-07-10T01:01:22.800Z,82.53
2023-07-10T01:03:52.058Z,82.77
2023-07-10T01:06:36.735Z,83.96
2023-07-10T01:09:06.666Z,84.81
2023-07-10T01:11:38.704Z,85.07
2023-07-10T01:14:10.093Z,84.61
2023-07-10T01:16:36.952Z,84.81
2023-07-10T01:19:07.705Z,83.79
2023-07-10T01:21:39.097Z,84.24
2023-07-10T01:24:07.285Z,83.03
2023-07-10T01:26:37.615Z,81.08
2023-07-10T01:29:04.568Z,81.51
2023-07-10T01:31:31.996Z,81.63
2023-07-10T01:34:05.295Z,83.33
2023-07-10T01:36:38.861Z,83.92
2023-07-10T01:39:11.407Z,84.65
2023-07-10T01:41:41.119Z,83.45
2023-07-10T01:44:29.084Z,83.38
2023-07-10T01:46:57.854Z,83.64
2023-07-10T01:49:55.264Z,83.64
2023-07-10T01:52:23.405Z,84.84
2023-07-10T01:54:51.332Z,84.37
2023-07-10T01:57:24.591Z,83.98
2023-07-10T01:59:52.588Z,83.35
2023-07-10T02:02:19.567Z,84.12
2023-07-10T02:04:46.093Z,83.05
2023-07-10T02:07:12.877Z,83.78
2023-07-10T02:09:39.595Z,83.56
2023-07-10T02:12:06.724Z,83.74
2023-07-10T02:14:33.829Z,83.88
2023-07-10T02:17:00.452Z,84.31
2023-07-10T02:19:27.228Z,83.93
2023-07-10T02:21:53.748Z,84.79
2023-07-10T02:24:20.351Z,83.74
2023-07-10T02:26:47.338Z,83.67
2023-07-10T02:29:13.828Z,83.69
2023-07-10T02:31:40.528Z,84.64
2023-07-10T02:34:07.150Z,83.94
2023-07-10T02:36:34.725Z,82.80
2023-07-10T02:39:01.385Z,83.00
2023-07-10T02:41:29.139Z,82.33
2023-07-10T02:43:55.768Z,84.37
2023-07-10T02:46:22.471Z,84.82
2023-07-10T02:48:50.286Z,85.32
2023-07-10T02:51:16.933Z,85.26
2023-07-10T02:53:43.742Z,85.85
2023-07-10T02:56:10.349Z,85.47
2023-07-10T02:58:37.024Z,85.27
2023-07-10T03:01:04.501Z,85.18
2023-07-10T03:03:31.411Z,84.40
2023-07-10T03:06:00.683Z,84.41
2023-07-10T03:08:28.175Z,85.19
2023-07-10T03:11:01.912Z,84.64
2023-07-10T03:13:28.564Z,84.85
2023-07-10T03:16:15.826Z,85.00
2023-07-10T03:18:42.440Z,85.34
2023-07-10T03:21:09.889Z,85.23
2023-07-10T03:23:36.989Z,84.63
2023-07-10T03:26:04.010Z,85.31
2023-07-10T03:28:35.742Z,85.02
2023-07-10T03:31:02.381Z,85.80
2023-07-10T03:33:28.910Z,85.97
2023-07-10T03:36:00.447Z,85.74
2023-07-10T03:38:27.376Z,87.42
2023-07-10T03:40:54.859Z,86.64
2023-07-10T03:43:21.422Z,87.37
2023-07-10T03:45:47.990Z,86.37
2023-07-10T03:48:15.145Z,87.21
2023-07-10T03:50:42.195Z,87.14
2023-07-10T03:53:08.653Z,87.98
2023-07-10T03:55:35.278Z,87.45
2023-07-10T03:58:01.854Z,88.16
2023-07-10T04:00:28.610Z,88.02
2023-07-10T04:02:55.298Z,87.22
2023-07-10T04:05:22.079Z,87.82
2023-07-10T04:07:48.611Z,87.05
2023-07-10T04:10:15.284Z,86.55
2023-07-10T04:12:43.814Z,88.16
2023-07-10T04:15:10.642Z,85.12
2023-07-10T04:17:37.266Z,81.76
2023-07-10T04:20:04.689Z,84.26
2023-07-10T04:22:31.221Z,86.62
2023-07-10T04:25:05.250Z,84.15
2023-07-10T04:27:32.040Z,84.83
2023-07-10T04:29:58.666Z,83.85
2023-07-10T04:32:25.742Z,84.50
2023-07-10T04:34:52.497Z,83.09
2023-07-10T04:37:19.086Z,85.69
2023-07-10T04:39:46.448Z,85.48
2023-07-10T04:42:13.279Z,85.65
2023-07-10T04:44:39.871Z,87.09
2023-07-10T04:47:06.981Z,82.80
2023-07-10T04:49:33.608Z,83.41
2023-07-10T04:52:00.141Z,83.79
2023-07-10T04:54:26.739Z,82.86
2023-07-10T04:56:53.626Z,82.75
2023-07-10T04:59:20.505Z,83.52
2023-07-10T05:01:47.353Z,82.98
2023-07-10T05:04:14.057Z,82.97
2023-07-10T05:06:40.649Z,81.13
2023-07-10T05:09:07.361Z,80.90
2023-07-10T05:11:33.924Z,81.50
2023-07-10T05:14:00.834Z,80.54
2023-07-10T05:16:27.418Z,80.64
2023-07-10T05:18:53.993Z,80.43
2023-07-10T05:21:20.612Z,79.03
2023-07-10T05:23:47.293Z,79.92
2023-07-10T05:26:16.634Z,80.16
2023-07-10T05:28:43.494Z,79.22
2023-07-10T05:31:12.189Z,78.90
2023-07-10T05:33:40.254Z,79.08
2023-07-10T05:36:11.401Z,78.40
2023-07-10T05:38:38.703Z,78.45
2023-07-10T05:41:05.949Z,77.73
2023-07-10T05:43:34.373Z,74.81
2023-07-10T05:46:02.039Z,73.02
2023-07-10T05:48:29.760Z,72.68
2023-07-10T05:50:57.150Z,74.58
2023-07-10T05:53:24.690Z,74.38
2023-07-10T05:55:53.668Z,74.74
2023-07-10T05:58:24.639Z,74.23
2023-07-10T06:00:54.917Z,74.51
2023-07-10T06:03:21.710Z,76.60
2023-07-10T06:05:59.601Z,75.72
2023-07-10T06:08:27.714Z,79.13
2023-07-10T06:10:54.345Z,77.12
2023-07-10T06:13:21.574Z,77.14
2023-07-10T06:15:50.232Z,78.39
2023-07-10T06:18:18.164Z,76.34
2023-07-10T06:20:53.860Z,77.25
2023-07-10T06:23:21.836Z,79.25
2023-07-10T06:25:48.493Z,79.40
2023-07-10T06:28:15.498Z,81.30
2023-07-10T06:30:42.590Z,81.37
2023-07-10T06:33:11.606Z,82.22
2023-07-10T06:35:39.894Z,81.51
2023-07-10T06:38:06.406Z,83.03
2023-07-10T06:40:32.966Z,82.15
2023-07-10T06:42:59.482Z,83.80
2023-07-10T06:45:26.131Z,84.87
2023-07-10T06:47:52.797Z,85.99
2023-07-10T06:50:19.483Z,86.16
2023-07-10T06:52:46.519Z,84.90
2023-07-10T06:55:15.354Z,85.25
2023-07-10T06:57:42.271Z,87.24
2023-07-10T07:00:09.926Z,87.56
2023-07-10T07:02:37.662Z,87.39
2023-07-10T07:05:05.690Z,87.58
2023-07-10T07:07:32.333Z,86.69
2023-07-10T07:09:59.096Z,84.87
2023-07-10T07:12:26.006Z,85.63
2023-07-10T07:14:52.669Z,85.73
2023-07-10T07:17:19.276Z,83.61
2023-07-10T07:19:47.443Z,84.25
2023-07-10T07:22:14.837Z,82.69
2023-07-10T07:24:41.747Z,84.75
2023-07-10T07:27:08.841Z,84.99
2023-07-10T07:29:35.454Z,82.18
2023-07-10T07:32:02.004Z,80.57
2023-07-10T07:34:28.587Z,81.13
2023-07-10T07:36:55.222Z,79.96
2023-07-10T07:39:22.018Z,80.53
2023-07-10T07:41:48.627Z,79.71
2023-07-10T07:44:15.307Z,77.74
2023-07-10T07:46:43.063Z,77.66
2023-07-10T07:49:09.638Z,77.74
2023-07-10T07:51:37.649Z,78.53
2023-07-10T07:54:09.480Z,78.86
2023-07-10T07:56:36.065Z,78.57
2023-07-10T07:59:02.618Z,79.76
2023-07-10T08:01:29.262Z,76.98
2023-07-10T08:03:56.042Z,78.54
2023-07-10T08:06:27.650Z,78.16
2023-07-10T08:08:54.251Z,79.21
2023-07-10T08:11:21.652Z,81.54
2023-07-10T08:13:49.021Z,81.98
2023-07-10T08:16:16.048Z,81.15
2023-07-10T08:18:42.518Z,82.61
2023-07-10T08:21:11.704Z,80.78
2023-07-10T08:23:38.390Z,80.97
2023-07-10T08:26:05.970Z,82.38
2023-07-10T08:28:32.956Z,81.87
2023-07-10T08:30:59.775Z,81.76
2023-07-10T08:33:26.450Z,79.98
2023-07-10T08:35:57.760Z,79.19
2023-07-10T08:38:24.439Z,79.10
2023-07-10T08:40:55.225Z,79.91
2023-07-10T08:43:31.080Z,79.31
2023-07-10T08:46:07.231Z,76.90
2023-07-10T08:48:54.478Z,77.62
2023-07-10T08:51:20.978Z,74.79
2023-07-10T08:54:06.634Z,74.77
2023-07-10T08:56:48.972Z,76.66
2023-07-10T08:59:43.167Z,74.92
2023-07-10T09:02:38.079Z,73.35
2023-07-10T09:05:13.858Z,74.81
2023-07-10T09:07:44.089Z,74.28
2023-07-10T09:10:21.732Z,72.04
2023-07-10T09:12:52.231Z,71.94
2023-07-10T09:15:32.838Z,73.47
2023-07-10T09:18:11.804Z,74.28
2023-07-10T09:20:38.811Z,74.30
2023-07-10T09:23:19.907Z,73.92
2023-07-10T09:25:53.319Z,73.00
2023-07-10T09:28:19.904Z,72.19
2023-07-10T09:30:56.353Z,72.34
2023-07-10T09:33:23.750Z,74.20
2023-07-10T09:35:50.859Z,74.36
2023-07-10T09:38:19.788Z,73.63
2023-07-10T09:40:50.182Z,73.89
2023-07-10T09:43:20.487Z,71.99
2023-07-10T09:45:59.250Z,70.70
2023-07-10T09:48:36.156Z,69.05
2023-07-10T09:51:05.696Z,67.29
2023-07-10T09:53:36.950Z,69.39
2023-07-10T09:56:04.034Z,68.25
2023-07-10T09:58:31.154Z,66.47
2023-07-10T10:01:02.142Z,66.73
2023-07-10T10:03:33.920Z,68.88
2023-07-10T10:06:03.773Z,66.79
2023-07-10T10:08:33.570Z,66.65
2023-07-10T10:11:09.848Z,65.39
2023-07-10T10:13:57.633Z,65.48
2023-07-10T10:16:50.188Z,62.64
2023-07-10T10:19:29.122Z,61.92
2023-07-10T10:21:56.227Z,61.55
2023-07-10T10:24:23.423Z,61.68
2023-07-10T10:27:12.099Z,62.62
2023-07-10T10:30:04.163Z,63.36
2023-07-10T10:32:55.442Z,65.72
2023-07-10T10:35:30.983Z,65.24
2023-07-10T10:37:57.493Z,62.58
2023-07-10T10:40:42.373Z,60.24
2023-07-10T10:43:49.241Z,62.74
2023-07-10T10:46:37.390Z,62.33
2023-07-10T10:49:09.710Z,62.49
2023-07-10T10:52:08.522Z,62.10
2023-07-10T10:54:48.607Z,61.69
2023-07-10T10:57:49.999Z,62.41
2023-07-10T11:00:56.829Z,63.29
2023-07-10T11:03:32.715Z,62.35
2023-07-10T11:06:17.952Z,60.03
2023-07-10T11:08:49.396Z,61.55
2023-07-10T11:11:30.685Z,61.13
2023-07-10T11:13:58.769Z,61.29
2023-07-10T11:16:28.387Z,62.14
2023-07-10T11:18:55.153Z,62.64
2023-07-10T11:21:22.888Z,62.41
2023-07-10T11:23:51.377Z,62.28
2023-07-10T11:26:22.309Z,63.06
2023-07-10T11:29:02.242Z,62.72
2023-07-10T11:31:33.694Z,63.27
2023-07-10T11:34:06.366Z,63.07
2023-07-10T11:36:41.384Z,62.87
2023-07-10T11:39:08.267Z,62.33
2023-07-10T11:41:44.828Z,63.00
2023-07-10T11:44:29.931Z,62.10
2023-07-10T11:47:06.156Z,61.97
2023-07-10T11:49:36.059Z,59.66
2023-07-10T11:52:27.090Z,61.27
2023-07-10T11:54:53.609Z,61.03
2023-07-10T11:57:21.661Z,61.05
2023-07-10T11:59:52.489Z,61.10
2023-07-10T12:02:42.851Z,61.29
2023-07-10T12:05:16.517Z,61.49
2023-07-10T12:07:59.877Z,58.58
2023-07-10T12:10:30.195Z,56.71
2023-07-10T12:12:58.236Z,57.08
2023-07-10T12:15:26.523Z,58.18
2023-07-10T12:17:55.645Z,57.47
2023-07-10T12:20:26.834Z,54.35
2023-07-10T12:22:56.215Z,57.13
2023-07-10T12:25:23.353Z,58.55
2023-07-10T12:28:23.578Z,59.41
2023-07-10T12:30:37.210Z,57.02
2023-07-10T12:33:05.469Z,55.01
2023-07-10T12:35:38.997Z,53.53
2023-07-10T12:38:09.087Z,55.32
2023-07-10T12:40:37.684Z,53.33
2023-07-10T12:43:16.241Z,54.50
2023-07-10T12:45:42.930Z,54.50
2023-07-10T12:48:13.379Z,52.69
2023-07-10T12:50:47.099Z,53.55
2023-07-10T12:53:25.252Z,53.34
2023-07-10T12:56:09.456Z,53.36
2023-07-10T12:58:37.412Z,54.13
2023-07-10T13:01:34.184Z,52.21
2023-07-10T13:04:09.813Z,53.25
2023-07-10T13:06:37.471Z,52.83
2023-07-10T13:09:07.316Z,52.34
2023-07-10T13:11:41.336Z,51.22
2023-07-10T13:14:24.207Z,50.72
2023-07-10T13:16:51.959Z,49.97
2023-07-10T13:19:18.538Z,48.81
2023-07-10T13:21:45.094Z,49.37
2023-07-10T13:24:11.604Z,50.98
2023-07-10T13:26:38.230Z,48.93
2023-07-10T13:29:12.050Z,50.83
2023-07-10T13:31:38.873Z,48.76
2023-07-10T13:34:05.431Z,48.52
2023-07-10T13:36:33.564Z,48.67
2023-07-10T13:39:00.279Z,48.18
2023-07-10T13:41:28.702Z,48.37
2023-07-10T13:43:55.871Z,49.25
2023-07-10T13:46:29.292Z,47.76
2023-07-10T13:49:01.333Z,46.86
2023-07-10T13:51:29.550Z,47.97
2023-07-10T13:53:56.840Z,48.57
2023-07-10T13:56:39.878Z,48.10
2023-07-10T13:59:12.563Z,48.30
2023-07-10T14:01:39.136Z,45.46
2023-07-10T14:04:05.706Z,47.54
2023-07-10T14:06:42.366Z,46.75
2023-07-10T14:09:16.353Z,46.66
2023-07-10T14:11:43.563Z,47.79
2023-07-10T14:14:18.262Z,46.72
2023-07-10T14:16:46.414Z,46.20
2023-07-10T14:19:18.344Z,46.46
2023-07-10T14:21:46.307Z,45.91
2023-07-10T14:24:12.846Z,47.55
2023-07-10T14:26:39.632Z,46.88
2023-07-10T14:29:06.231Z,44.44
2023-07-10T14:31:32.892Z,45.36
2023-07-10T14:33:59.498Z,44.06
2023-07-10T14:36:27.917Z,45.73
2023-07-10T14:38:54.613Z,46.16
2023-07-10T14:41:24.912Z,45.90
2023-07-10T14:43:52.517Z,47.37
2023-07-10T14:46:34.808Z,46.29
2023-07-10T14:49:12.141Z,46.56
2023-07-10T14:51:38.686Z,46.45
2023-07-10T14:54:05.289Z,46.15
2023-07-10T14:56:31.961Z,46.35
2023-07-10T14:58:58.506Z,45.83
2023-07-10T15:01:25.062Z,46.32
2023-07-10T15:03:51.706Z,46.98
2023-07-10T15:06:29.662Z,46.86
2023-07-10T15:08:56.601Z,46.74
2023-07-10T15:11:24.109Z,45.97
2023-07-10T15:13:51.129Z,46.54
2023-07-10T15:16:22.349Z,49.14
2023-07-10T15:18:49.690Z,45.63
2023-07-10T15:21:19.749Z,45.28
2023-07-10T15:23:46.624Z,47.15
2023-07-10T15:26:14.230Z,46.36
2023-07-10T15:28:40.962Z,44.52
2023-07-10T15:31:10.611Z,45.42
2023-07-10T15:33:43.522Z,44.73
2023-07-10T15:36:17.204Z,46.04
2023-07-10T15:38:44.086Z,44.46
2023-07-10T15:41:21.937Z,46.42
2023-07-10T15:43:48.826Z,46.95
2023-07-10T15:46:15.485Z,46.67
2023-07-10T15:48:42.639Z,46.42
2023-07-10T15:51:28.585Z,47.60
2023-07-10T15:53:56.423Z,47.07
2023-07-10T15:56:23.220Z,47.02
2023-07-10T15:58:49.803Z,47.94
2023-07-10T16:01:21.322Z,48.05
2023-07-10T16:03:50.805Z,47.02
2023-07-10T16:06:17.407Z,46.80
2023-07-10T16:08:43.996Z,47.72
2023-07-10T16:11:10.476Z,48.41
2023-07-10T16:13:37.469Z,48.13
2023-07-10T16:16:04.123Z,47.30
2023-07-10T16:18:32.978Z,46.18
2023-07-10T16:21:15.213Z,46.99
2023-07-10T16:23:42.107Z,46.96
2023-07-10T16:26:09.417Z,47.87
2023-07-10T16:28:36.048Z,46.57
2023-07-10T16:31:02.689Z,47.97
2023-07-10T16:33:31.037Z,47.49
2023-07-10T16:35:58.051Z,47.74
2023-07-10T16:38:24.715Z,48.91
2023-07-10T16:40:54.726Z,47.98
2023-07-10T16:43:27.819Z,47.13
2023-07-10T16:45:54.374Z,48.06
2023-07-10T16:48:24.287Z,48.27
2023-07-10T16:50:54.484Z,47.64
2023-07-10T16:53:28.285Z,49.07
2023-07-10T16:55:56.061Z,48.53
2023-07-10T16:58:24.600Z,48.50
2023-07-10T17:00:52.042Z,49.75
2023-07-10T17:03:45.116Z,50.34
2023-07-10T17:06:16.291Z,52.03
2023-07-10T17:08:43.272Z,48.60
2023-07-10T17:11:11.019Z,47.19
2023-07-10T17:13:39.375Z,47.71
2023-07-10T17:16:06.859Z,47.98
2023-07-10T17:18:33.968Z,48.32
2023-07-10T17:21:04.788Z,48.20
2023-07-10T17:23:34.354Z,48.41
2023-07-10T17:26:01.774Z,49.71
2023-07-10T17:28:31.895Z,48.85
2023-07-10T17:31:04.673Z,50.40
2023-07-10T17:33:41.061Z,48.46
2023-07-10T17:36:10.033Z,49.21
2023-07-10T17:38:38.073Z,50.18
2023-07-10T17:41:06.900Z,48.28
2023-07-10T17:43:35.019Z,50.53
2023-07-10T17:46:06.469Z,48.98
2023-07-10T17:48:33.336Z,52.50
2023-07-10T17:51:05.087Z,49.91
2023-07-10T17:53:31.938Z,50.34
2023-07-10T17:55:59.685Z,49.48
2023-07-10T17:58:28.266Z,49.87
2023-07-10T18:00:55.220Z,51.55
2023-07-10T18:03:22.903Z,51.18
2023-07-10T18:05:50.656Z,50.38
2023-07-10T18:08:23.064Z,50.37
2023-07-10T18:10:52.933Z,50.74
2023-07-10T18:13:34.689Z,49.72
2023-07-10T18:16:01.580Z,51.95
2023-07-10T18:18:28.436Z,53.11
2023-07-10T18:20:55.307Z,52.52
2023-07-10T18:23:26.820Z,53.68
2023-07-10T18:25:56.072Z,56.70
2023-07-10T18:28:27.045Z,54.41
2023-07-10T18:30:56.129Z,54.57
2023-07-10T18:33:25.178Z,54.05
2023-07-10T18:35:54.007Z,57.50
2023-07-10T18:38:22.528Z,54.49
2023-07-10T18:40:52.021Z,56.45
2023-07-10T18:43:21.355Z,57.24
2023-07-10T18:45:48.373Z,55.49
2023-07-10T18:48:30.018Z,56.77
2023-07-10T18:51:07.022Z,56.00
2023-07-10T18:53:34.022Z,57.72
2023-07-10T18:56:00.569Z,58.11
2023-07-10T18:58:30.335Z,59.15
2023-07-10T19:00:59.049Z,58.99
2023-07-10T19:03:25.920Z,58.50
2023-07-10T19:05:54.821Z,59.83
2023-07-10T19:08:31.053Z,59.80
2023-07-10T19:10:58.980Z,61.16
2023-07-10T19:13:28.088Z,59.04
2023-07-10T19:15:59.316Z,59.24
2023-07-10T19:18:29.232Z,60.79
2023-07-10T19:20:56.614Z,59.87
2023-07-10T19:23:32.119Z,59.92
2023-07-10T19:25:59.505Z,59.40
2023-07-10T19:28:28.695Z,60.26
2023-07-10T19:31:02.316Z,62.02
2023-07-10T19:33:32.417Z,59.75
2023-07-10T19:35:59.077Z,58.59
2023-07-10T19:38:27.982Z,60.19
2023-07-10T19:40:56.785Z,58.89
2023-07-10T19:43:24.374Z,59.88
2023-07-10T19:45:53.912Z,60.95
2023-07-10T19:48:26.509Z,61.51
2023-07-10T19:50:53.207Z,63.48
2023-07-10T19:53:25.785Z,62.95
2023-07-10T19:55:55.184Z,63.53
2023-07-10T19:58:26.497Z,63.79
2023-07-10T20:00:53.235Z,65.20
2023-07-10T20:03:27.095Z,65.90
2023-07-10T20:05:54.129Z,66.75
2023-07-10T20:08:24.245Z,67.32
2023-07-10T20:10:52.472Z,67.09
2023-07-10T20:13:21.395Z,66.87
2023-07-10T20:16:05.085Z,68.11
2023-07-10T20:18:34.868Z,68.62
2023-07-10T20:21:02.896Z,68.66
2023-07-10T20:23:29.715Z,69.96
2023-07-10T20:26:01.587Z,70.52
2023-07-10T20:28:33.737Z,69.79
2023-07-10T20:31:00.346Z,71.21
2023-07-10T20:33:33.281Z,71.51
2023-07-10T20:36:02.145Z,71.25
2023-07-10T20:38:37.572Z,71.86
2023-07-10T20:41:06.384Z,71.56
2023-07-10T20:43:33.735Z,69.01
2023-07-10T20:46:10.219Z,69.67
2023-07-10T20:48:37.029Z,72.35
2023-07-10T20:51:04.897Z,69.86
2023-07-10T20:53:32.294Z,72.06
2023-07-10T20:56:30.005Z,69.45
2023-07-10T20:58:59.634Z,71.84
2023-07-10T21:01:28.724Z,71.56
2023-07-10T21:03:56.877Z,72.01
2023-07-10T21:06:34.325Z,72.60
2023-07-10T21:09:02.376Z,72.85
2023-07-10T21:11:31.457Z,71.45
2023-07-10T21:13:59.543Z,73.50
2023-07-10T21:16:30.279Z,72.95
2023-07-10T21:18:57.398Z,72.81
2023-07-10T21:21:23.909Z,73.11
2023-07-10T21:23:50.581Z,72.92
2023-07-10T21:26:20.508Z,73.37
2023-07-10T21:28:49.773Z,73.79
2023-07-10T21:31:19.085Z,74.83
2023-07-10T21:33:46.467Z,74.96
2023-07-10T21:36:13.583Z,74.15
2023-07-10T21:38:40.749Z,75.10
2023-07-10T21:41:17.141Z,74.74
2023-07-10T21:43:45.632Z,74.07
2023-07-10T21:46:23.038Z,74.90
2023-07-10T21:48:50.337Z,75.39
2023-07-10T21:51:16.907Z,76.96
2023-07-10T21:53:43.731Z,76.47
2023-07-10T21:56:18.845Z,76.09
2023-07-10T21:58:47.412Z,75.63
2023-07-10T22:01:17.129Z,73.46
2023-07-10T22:03:44.679Z,74.92
2023-07-10T22:06:12.383Z,75.75
2023-07-10T22:08:39.906Z,76.06
2023-07-10T22:11:14.241Z,75.17
2023-07-10T22:13:42.310Z,75.87
2023-07-10T22:16:15.358Z,76.54
2023-07-10T22:18:42.821Z,76.62
2023-07-10T22:21:11.658Z,74.72
2023-07-10T22:23:38.434Z,74.60
2023-07-10T22:26:05.332Z,75.00
2023-07-10T22:28:33.234Z,75.60
2023-07-10T22:31:02.794Z,77.77
2023-07-10T22:33:34.381Z,78.38
2023-07-10T22:36:01.108Z,77.61
2023-07-10T22:38:27.917Z,77.14
2023-07-10T22:41:00.368Z,76.82
2023-07-10T22:43:35.484Z,76.78
2023-07-10T22:46:12.640Z,77.15
2023-07-10T22:48:39.181Z,78.13
2023-07-10T22:51:11.582Z,77.48
2023-07-10T22:53:38.747Z,77.82
2023-07-10T22:56:20.313Z,78.18
2023-07-10T22:58:47.526Z,78.79
2023-07-10T23:01:14.892Z,79.91
2023-07-10T23:03:42.039Z,79.64
2023-07-10T23:06:15.748Z,79.24
2023-07-10T23:08:42.678Z,79.09
2023-07-10T23:11:09.223Z,79.00
2023-07-10T23:13:35.857Z,78.85
2023-07-10T23:16:02.841Z,78.12
2023-07-10T23:18:29.365Z,79.72
2023-07-10T23:20:55.881Z,77.90
2023-07-10T23:23:22.418Z,78.34
2023-07-10T23:25:49.041Z,79.02
2023-07-10T23:28:16.979Z,79.33
2023-07-10T23:30:47.318Z,78.71
2023-07-10T23:33:15.023Z,79.87
2023-07-10T23:35:43.047Z,78.43
2023-07-10T23:38:10.929Z,79.68
2023-07-10T23:40:38.426Z,80.93
2023-07-10T23:43:05.126Z,78.65
2023-07-10T23:45:31.750Z,80.16
2023-07-10T23:47:58.326Z,80.57
2023-07-10T23:50:25.010Z,80.35
2023-07-10T23:52:52.022Z,79.62
2023-07-10T23:55:18.641Z,80.40
2023-07-10T23:57:47.158Z,78.41
